createdAt,value
2022-10-17T00:00:58.098Z,101409.11
2022-10-17T00:03:47.677Z,101410.31
2022-10-17T00:06:29.365Z,101411.65
2022-10-17T00:09:11.056Z,101408.43
2022-10-17T00:11:52.850Z,101408.15
2022-10-17T00:14:35.052Z,101407.66
2022-10-17T00:17:16.756Z,101412.66
2022-10-17T00:20:00.155Z,101432.77
2022-10-17T00:22:43.095Z,101444.88
2022-10-17T00:25:25.093Z,101448.42
2022-10-17T00:28:09.859Z,101446.38
2022-10-17T00:31:03.119Z,101439.45
2022-10-17T00:33:45.118Z,101439.71
2022-10-17T00:36:27.320Z,101441.16
2022-10-17T00:39:09.525Z,101435.13
2022-10-17T00:41:51.418Z,101428.99
2022-10-17T00:44:34.749Z,101429.93
2022-10-17T00:47:22.599Z,101427.25
2022-10-17T00:50:07.350Z,101427.17
2022-10-17T00:52:49.534Z,101420.61
2022-10-17T00:55:35.541Z,101426.56
2022-10-17T00:58:19.106Z,101417.86
2022-10-17T01:01:02.858Z,101423.31
2022-10-17T01:03:44.914Z,101422.92
2022-10-17T01:06:27.281Z,101416.59
2022-10-17T01:09:09.238Z,101414.55
2022-10-17T01:12:06.780Z,101412.63
2022-10-17T01:15:11.305Z,101422.92
2022-10-17T01:18:08.459Z,101424.85
2022-10-17T01:21:00.054Z,101427.71
2022-10-17T01:24:14.271Z,101427.70
2022-10-17T01:27:26.134Z,101440.63
2022-10-17T01:30:29.432Z,101442.00
2022-10-17T01:33:19.838Z,101449.95
2022-10-17T01:36:05.997Z,101457.20
2022-10-17T01:39:15.056Z,101458.19
2022-10-17T01:42:14.154Z,101458.87
2022-10-17T01:45:13.561Z,101455.49
2022-10-17T01:48:00.678Z,101458.08
2022-10-17T01:50:48.621Z,101453.70
2022-10-17T01:53:36.048Z,101443.27
2022-10-17T01:56:19.990Z,101433.09
2022-10-17T01:59:13.452Z,101428.43
2022-10-17T02:01:57.395Z,101424.55
2022-10-17T02:04:41.750Z,101416.08
2022-10-17T02:07:23.542Z,101406.26
2022-10-17T02:10:15.372Z,101414.64
2022-10-17T02:13:27.786Z,101425.83
2022-10-17T02:16:37.944Z,101436.64
2022-10-17T02:19:55.064Z,101436.75
2022-10-17T02:23:01.125Z,101440.35
2022-10-17T02:25:51.109Z,101436.56
2022-10-17T02:28:47.790Z,101435.96
2022-10-17T02:31:36.712Z,101444.57
2022-10-17T02:34:41.054Z,101447.41
2022-10-17T02:37:27.873Z,101453.33
2022-10-17T02:40:14.454Z,101456.42
2022-10-17T02:42:58.599Z,101459.65
2022-10-17T02:45:40.802Z,101457.35
2022-10-17T02:48:31.001Z,101458.27
2022-10-17T02:51:24.256Z,101456.83
2022-10-17T02:54:10.041Z,101454.72
2022-10-17T02:57:02.535Z,101457.50
2022-10-17T02:59:46.121Z,101458.05
2022-10-17T03:02:28.659Z,101468.88
2022-10-17T03:05:12.979Z,101462.89
2022-10-17T03:07:56.110Z,101469.73
2022-10-17T03:10:39.541Z,101468.14
2022-10-17T03:13:21.337Z,101468.38
2022-10-17T03:16:03.131Z,101474.98
2022-10-17T03:18:47.962Z,101475.03
2022-10-17T03:21:32.348Z,101472.08
2022-10-17T03:24:14.549Z,101460.15
2022-10-17T03:26:56.279Z,101454.06
2022-10-17T03:29:38.340Z,101457.80
2022-10-17T03:32:20.850Z,101462.70
2022-10-17T03:35:03.872Z,101459.23
2022-10-17T03:37:45.666Z,101460.63
2022-10-17T03:40:27.562Z,101468.33
2022-10-17T03:43:11.608Z,101474.61
2022-10-17T03:45:54.426Z,101481.84
2022-10-17T03:48:36.422Z,101474.98
2022-10-17T03:51:19.037Z,101479.48
2022-10-17T03:54:05.129Z,101479.23
2022-10-17T03:56:47.104Z,101485.95
2022-10-17T03:59:31.481Z,101489.20
2022-10-17T04:02:17.985Z,101492.61
2022-10-17T04:04:59.983Z,101488.73
2022-10-17T04:07:41.777Z,101487.02
2022-10-17T04:10:24.595Z,101485.17
2022-10-17T04:13:07.001Z,101484.68
2022-10-17T04:16:00.573Z,101481.39
2022-10-17T04:18:43.081Z,101482.17
2022-10-17T04:21:27.259Z,101478.44
2022-10-17T04:24:11.993Z,101478.59
2022-10-17T04:27:05.869Z,101482.02
2022-10-17T04:29:50.632Z,101479.74
2022-10-17T04:32:39.080Z,101479.07
2022-10-17T04:35:29.782Z,101480.27
2022-10-17T04:38:16.131Z,101477.08
2022-10-17T04:41:04.334Z,101479.08
2022-10-17T04:43:48.643Z,101485.35
2022-10-17T04:46:34.775Z,101487.44
2022-10-17T04:49:16.580Z,101487.86
2022-10-17T04:51:59.282Z,101492.05
2022-10-17T04:54:50.730Z,101493.81
2022-10-17T04:57:35.878Z,101495.21
2022-10-17T05:00:31.595Z,101502.88
2022-10-17T05:03:24.855Z,101508.39
2022-10-17T05:06:12.399Z,101507.19
2022-10-17T05:08:54.586Z,101510.58
2022-10-17T05:11:36.482Z,101513.30
2022-10-17T05:14:18.275Z,101510.20
2022-10-17T05:17:00.070Z,101510.88
2022-10-17T05:19:43.403Z,101509.52
2022-10-17T05:22:25.294Z,101505.90
2022-10-17T05:25:07.598Z,101505.02
2022-10-17T05:27:49.410Z,101503.31
2022-10-17T05:30:36.729Z,101506.66
2022-10-17T05:33:23.525Z,101508.52
2022-10-17T05:36:07.602Z,101512.31
2022-10-17T05:38:51.516Z,101516.95
2022-10-17T05:41:33.411Z,101510.94
2022-10-17T05:44:15.821Z,101516.84
2022-10-17T05:47:00.378Z,101522.73
2022-10-17T05:49:49.963Z,101521.58
2022-10-17T05:52:36.494Z,101525.86
2022-10-17T05:55:25.316Z,101524.94
2022-10-17T05:58:07.213Z,101531.11
2022-10-17T06:00:52.256Z,101532.23
2022-10-17T06:03:34.178Z,101532.57
2022-10-17T06:06:20.170Z,101535.13
2022-10-17T06:09:03.199Z,101541.38
2022-10-17T06:11:48.056Z,101545.59
2022-10-17T06:14:30.361Z,101548.55
2022-10-17T06:17:16.542Z,101551.31
2022-10-17T06:19:59.887Z,101551.27
2022-10-17T06:22:42.463Z,101553.01
2022-10-17T06:25:31.872Z,101557.36
2022-10-17T06:28:13.564Z,101560.98
2022-10-17T06:30:55.977Z,101560.11
2022-10-17T06:33:38.274Z,101561.96
2022-10-17T06:36:20.375Z,101562.16
2022-10-17T06:39:02.680Z,101566.05
2022-10-17T06:41:50.516Z,101572.26
2022-10-17T06:44:34.871Z,101577.39
2022-10-17T06:47:37.487Z,101582.05
2022-10-17T06:50:29.790Z,101583.05
2022-10-17T06:53:28.797Z,101587.34
2022-10-17T06:56:49.291Z,101587.45
2022-10-17T06:59:44.497Z,101590.46
2022-10-17T07:02:32.250Z,101593.47
2022-10-17T07:05:16.072Z,101592.49
2022-10-17T07:07:57.772Z,101592.21
2022-10-17T07:10:40.168Z,101590.13
2022-10-17T07:13:23.907Z,101587.96
2022-10-17T07:16:07.138Z,101587.77
2022-10-17T07:18:51.191Z,101587.48
2022-10-17T07:21:36.568Z,101591.33
2022-10-17T07:24:21.524Z,101589.23
2022-10-17T07:27:08.541Z,101590.00
2022-10-17T07:29:50.266Z,101592.61
2022-10-17T07:32:38.374Z,101591.48
2022-10-17T07:35:21.810Z,101592.80
2022-10-17T07:38:03.906Z,101594.30
2022-10-17T07:40:45.705Z,101593.34
2022-10-17T07:43:28.823Z,101588.05
2022-10-17T07:46:11.848Z,101587.58
2022-10-17T07:48:53.740Z,101581.98
2022-10-17T07:51:36.477Z,101577.98
2022-10-17T07:54:18.352Z,101579.02
2022-10-17T07:57:00.111Z,101576.62
2022-10-17T07:59:42.213Z,101579.73
2022-10-17T08:02:26.749Z,101578.89
2022-10-17T08:05:08.916Z,101579.71
2022-10-17T08:07:54.554Z,101582.53
2022-10-17T08:10:37.032Z,101585.11
2022-10-17T08:13:19.035Z,101580.59
2022-10-17T08:16:07.820Z,101582.08
2022-10-17T08:18:50.272Z,101581.29
2022-10-17T08:21:32.265Z,101583.86
2022-10-17T08:24:14.272Z,101586.54
2022-10-17T08:26:58.529Z,101583.15
2022-10-17T08:29:41.132Z,101588.64
2022-10-17T08:32:27.364Z,101583.75
2022-10-17T08:35:10.238Z,101577.62
2022-10-17T08:37:52.555Z,101578.86
2022-10-17T08:40:35.679Z,101573.86
2022-10-17T08:43:36.619Z,101574.79
2022-10-17T08:46:20.328Z,101571.82
2022-10-17T08:49:12.173Z,101567.05
2022-10-17T08:52:01.790Z,101562.65
2022-10-17T08:54:47.334Z,101560.27
2022-10-17T08:57:29.337Z,101558.95
2022-10-17T09:00:18.758Z,101556.38
2022-10-17T09:06:40.044Z,101553.21
2022-10-17T09:09:29.517Z,101555.23
2022-10-17T09:12:23.599Z,101552.98
2022-10-17T09:15:43.383Z,101555.77
2022-10-17T09:18:29.598Z,101555.29
2022-10-17T09:21:53.178Z,101560.44
2022-10-17T09:24:37.740Z,101559.03
2022-10-17T09:27:36.194Z,101563.20
2022-10-17T09:30:33.483Z,101562.54
2022-10-17T09:33:35.944Z,101565.88
2022-10-17T09:36:37.363Z,101563.42
2022-10-17T09:39:23.069Z,101557.93
2022-10-17T09:42:05.171Z,101552.79
2022-10-17T09:45:13.482Z,101548.23
2022-10-17T09:48:17.805Z,101544.98
2022-10-17T09:51:14.604Z,101544.35
2022-10-17T09:54:07.504Z,101544.67
2022-10-17T09:57:06.807Z,101542.01
2022-10-17T09:59:58.151Z,101546.79
2022-10-17T10:02:41.048Z,101546.67
2022-10-17T10:05:22.838Z,101542.86
2022-10-17T10:08:13.439Z,101546.15
2022-10-17T10:11:00.864Z,101544.42
2022-10-17T10:13:43.375Z,101550.65
2022-10-17T10:16:32.948Z,101547.95
2022-10-17T10:19:31.319Z,101544.96
2022-10-17T10:22:18.183Z,101545.09
2022-10-17T10:25:16.830Z,101551.23
2022-10-17T10:28:00.729Z,101547.80
2022-10-17T10:30:48.508Z,101547.24
2022-10-17T10:33:32.287Z,101551.19
2022-10-17T10:36:14.040Z,101546.42
2022-10-17T10:39:01.215Z,101546.03
2022-10-17T10:41:48.582Z,101539.81
2022-10-17T10:44:33.209Z,101535.30
2022-10-17T10:47:30.166Z,101535.83
2022-10-17T10:50:31.748Z,101534.13
2022-10-17T10:53:32.818Z,101530.95
2022-10-17T10:56:41.698Z,101529.75
2022-10-17T10:59:38.365Z,101525.38
2022-10-17T11:02:31.014Z,101517.02
2022-10-17T11:05:28.165Z,101517.38
2022-10-17T11:08:20.518Z,101519.69
2022-10-17T11:11:25.032Z,101520.78
2022-10-17T11:14:38.673Z,101514.36
2022-10-17T11:17:43.301Z,101513.16
2022-10-17T11:20:53.052Z,101514.19
2022-10-17T11:23:44.981Z,101510.77
2022-10-17T11:26:29.655Z,101509.03
2022-10-17T11:29:13.596Z,101505.27
2022-10-17T11:31:58.467Z,101505.71
2022-10-17T11:34:46.183Z,101506.30
2022-10-17T11:37:34.460Z,101500.15
2022-10-17T11:40:24.388Z,101495.22
2022-10-17T11:43:20.543Z,101487.10
2022-10-17T11:46:10.629Z,101484.38
2022-10-17T11:48:59.532Z,101486.48
2022-10-17T11:52:00.639Z,101486.02
2022-10-17T11:54:50.503Z,101493.73
2022-10-17T11:58:02.318Z,101493.12
2022-10-17T12:01:08.275Z,101491.17
2022-10-17T12:04:06.769Z,101491.45
2022-10-17T12:07:01.223Z,101490.83
2022-10-17T12:10:00.248Z,101483.52
2022-10-17T12:12:41.938Z,101480.69
2022-10-17T12:15:23.629Z,101475.88
2022-10-17T12:18:05.729Z,101472.48
2022-10-17T12:21:01.244Z,101474.73
2022-10-17T12:23:52.783Z,101470.35
2022-10-17T12:26:34.562Z,101474.65
2022-10-17T12:29:30.176Z,101464.70
2022-10-17T12:32:13.096Z,101464.38
2022-10-17T12:34:57.362Z,101459.13
2022-10-17T12:37:48.356Z,101465.14
2022-10-17T12:40:35.781Z,101463.10
2022-10-17T12:43:17.473Z,101464.52
2022-10-17T12:46:04.591Z,101459.02
2022-10-17T12:49:00.945Z,101462.09
2022-10-17T12:52:11.185Z,101462.84
2022-10-17T12:55:14.235Z,101455.15
2022-10-17T12:58:03.161Z,101450.36
2022-10-17T13:01:18.843Z,101444.20
2022-10-17T13:04:04.434Z,101448.15
2022-10-17T13:07:21.119Z,101445.47
2022-10-17T13:10:05.455Z,101450.40
2022-10-17T13:12:48.187Z,101453.00
2022-10-17T13:15:42.714Z,101454.30
2022-10-17T13:18:43.284Z,101451.50
2022-10-17T13:21:33.692Z,101445.17
2022-10-17T13:24:29.634Z,101444.27
2022-10-17T13:27:30.425Z,101445.91
2022-10-17T13:30:32.570Z,101441.45
2022-10-17T13:33:40.659Z,101437.03
2022-10-17T13:36:24.967Z,101430.77
2022-10-17T13:39:17.231Z,101427.14
2022-10-17T13:42:04.345Z,101427.89
2022-10-17T13:44:49.821Z,101432.17
2022-10-17T13:47:38.597Z,101428.39
2022-10-17T13:50:46.116Z,101426.80
2022-10-17T13:53:33.110Z,101427.25
2022-10-17T13:56:29.823Z,101427.85
2022-10-17T13:59:24.037Z,101424.75
2022-10-17T14:02:12.795Z,101419.34
2022-10-17T14:05:18.927Z,101413.84
2022-10-17T14:08:13.681Z,101412.81
2022-10-17T14:10:56.573Z,101413.00
2022-10-17T14:13:38.776Z,101407.83
2022-10-17T14:16:21.497Z,101406.77
2022-10-17T14:19:06.109Z,101406.37
2022-10-17T14:21:55.027Z,101406.16
2022-10-17T14:24:37.002Z,101401.70
2022-10-17T14:27:53.005Z,101399.55
2022-10-17T14:30:57.837Z,101402.60
2022-10-17T14:33:50.516Z,101405.01
2022-10-17T14:36:42.908Z,101407.95
2022-10-17T14:39:27.356Z,101408.52
2022-10-17T14:42:19.614Z,101407.44
2022-10-17T14:45:08.379Z,101410.04
2022-10-17T14:47:51.952Z,101412.28
2022-10-17T14:50:33.730Z,101413.98
2022-10-17T14:53:15.408Z,101413.39
2022-10-17T14:55:59.955Z,101415.02
2022-10-17T14:58:41.599Z,101410.57
2022-10-17T15:01:23.338Z,101411.95
2022-10-17T15:04:05.132Z,101410.54
2022-10-17T15:06:55.630Z,101411.88
2022-10-17T15:09:37.320Z,101411.63
2022-10-17T15:12:21.688Z,101416.17
2022-10-17T15:15:03.568Z,101416.67
2022-10-17T15:17:45.381Z,101414.34
2022-10-17T15:20:30.157Z,101423.00
2022-10-17T15:23:11.917Z,101415.66
2022-10-17T15:25:54.017Z,101413.67
2022-10-17T15:28:35.834Z,101412.05
2022-10-17T15:31:21.834Z,101410.76
2022-10-17T15:34:03.904Z,101410.25
2022-10-17T15:36:52.826Z,101409.45
2022-10-17T15:42:34.063Z,101414.09
2022-10-17T15:45:18.624Z,101414.87
2022-10-17T15:48:05.403Z,101407.07
2022-10-17T15:51:32.038Z,101405.50
2022-10-17T15:54:14.999Z,101407.61
2022-10-17T15:56:58.223Z,101406.47
2022-10-17T15:59:40.018Z,101406.89
2022-10-17T16:02:23.825Z,101406.69
2022-10-17T16:05:15.073Z,101406.30
2022-10-17T16:07:57.896Z,101413.27
2022-10-17T16:10:40.533Z,101411.88
2022-10-17T16:13:26.783Z,101417.16
2022-10-17T16:16:12.319Z,101419.70
2022-10-17T16:18:54.388Z,101418.17
2022-10-17T16:21:39.407Z,101422.20
2022-10-17T16:24:21.147Z,101422.91
2022-10-17T16:27:06.348Z,101422.10
2022-10-17T16:29:50.975Z,101420.64
2022-10-17T16:32:33.719Z,101424.30
2022-10-17T16:35:27.341Z,101426.72
2022-10-17T16:38:09.258Z,101425.69
2022-10-17T16:40:51.256Z,101428.27
2022-10-17T16:43:36.619Z,101426.23
2022-10-17T16:46:19.209Z,101426.40
2022-10-17T16:49:00.938Z,101424.06
2022-10-17T16:51:42.628Z,101422.38
2022-10-17T16:54:24.761Z,101423.50
2022-10-17T16:57:06.523Z,101427.45
2022-10-17T16:59:48.416Z,101426.01
2022-10-17T17:02:30.359Z,101428.08
2022-10-17T17:05:12.419Z,101425.21
2022-10-17T17:07:56.051Z,101431.89
2022-10-17T17:10:37.741Z,101433.12
2022-10-17T17:13:19.738Z,101430.43
2022-10-17T17:16:45.060Z,101423.25
2022-10-17T17:19:27.563Z,101422.98
2022-10-17T17:22:09.356Z,101423.16
2022-10-17T17:24:51.153Z,101420.98
2022-10-17T17:27:33.077Z,101420.34
2022-10-17T17:30:15.500Z,101420.04
2022-10-17T17:32:58.226Z,101425.83
2022-10-17T17:35:40.882Z,101433.07
2022-10-17T17:38:22.778Z,101431.11
2022-10-17T17:44:03.242Z,101427.05
2022-10-17T17:46:45.778Z,101431.94
2022-10-17T17:49:28.115Z,101433.69
2022-10-17T17:52:10.588Z,101434.76
2022-10-17T17:54:52.279Z,101435.77
2022-10-17T17:57:35.197Z,101432.06
2022-10-17T18:00:17.604Z,101426.56
2022-10-17T18:02:59.400Z,101426.02
2022-10-17T18:05:41.092Z,101426.86
2022-10-17T18:08:23.371Z,101428.52
2022-10-17T18:11:05.297Z,101433.94
2022-10-17T18:13:47.391Z,101431.95
2022-10-17T18:16:31.096Z,101431.99
2022-10-17T18:19:13.128Z,101428.55
2022-10-17T18:21:54.819Z,101424.40
2022-10-17T18:24:36.612Z,101421.23
2022-10-17T18:27:18.304Z,101421.61
2022-10-17T18:29:59.995Z,101417.07
2022-10-17T18:32:41.889Z,101417.23
2022-10-17T18:35:23.684Z,101424.52
2022-10-17T18:38:05.347Z,101424.34
2022-10-17T18:40:50.644Z,101426.86
2022-10-17T18:43:34.491Z,101426.52
2022-10-17T18:46:26.119Z,101427.15
2022-10-17T18:49:10.264Z,101428.51
2022-10-17T18:51:54.928Z,101434.45
2022-10-17T18:54:40.460Z,101434.34
2022-10-17T18:57:25.998Z,101434.02
2022-10-17T19:00:14.025Z,101434.61
2022-10-17T19:02:56.227Z,101427.45
2022-10-17T19:05:41.889Z,101426.36
2022-10-17T19:08:23.602Z,101420.27
2022-10-17T19:11:10.824Z,101425.34
2022-10-17T19:13:54.461Z,101423.98
2022-10-17T19:16:37.505Z,101423.21
2022-10-17T19:19:25.011Z,101422.83
2022-10-17T19:22:07.036Z,101422.70
2022-10-17T19:24:48.801Z,101423.18
2022-10-17T19:27:31.821Z,101419.58
2022-10-17T19:30:14.333Z,101417.54
2022-10-17T19:32:56.435Z,101418.30
2022-10-17T19:35:38.227Z,101417.42
2022-10-17T19:38:19.919Z,101416.56
2022-10-17T19:41:07.009Z,101416.86
2022-10-17T19:43:49.137Z,101412.70
2022-10-17T19:46:32.262Z,101408.14
2022-10-17T19:49:14.773Z,101407.80
2022-10-17T19:51:56.568Z,101406.76
2022-10-17T19:54:40.668Z,101407.63
2022-10-17T19:57:22.447Z,101409.31
2022-10-17T20:00:04.782Z,101423.29
2022-10-17T20:02:53.363Z,101433.52
2022-10-17T20:05:38.126Z,101436.20
2022-10-17T20:08:20.485Z,101440.19
2022-10-17T20:11:04.683Z,101441.09
2022-10-17T20:13:47.089Z,101437.77
2022-10-17T20:16:32.212Z,101444.18
2022-10-17T20:19:14.055Z,101441.88
2022-10-17T20:21:55.748Z,101441.38
2022-10-17T20:24:37.439Z,101441.19
2022-10-17T20:27:19.231Z,101448.73
2022-10-17T20:30:02.563Z,101444.25
2022-10-17T20:32:44.662Z,101444.42
2022-10-17T20:35:26.386Z,101447.54
2022-10-17T20:38:08.018Z,101444.33
2022-10-17T20:40:52.054Z,101446.90
2022-10-17T20:43:38.398Z,101444.29
2022-10-17T20:46:36.382Z,101444.15
2022-10-17T20:49:20.583Z,101448.48
2022-10-17T20:52:02.614Z,101445.25
2022-10-17T20:54:44.405Z,101448.35
2022-10-17T20:57:26.092Z,101444.60
2022-10-17T21:00:08.604Z,101443.86
2022-10-17T21:02:50.534Z,101442.58
2022-10-17T21:05:32.394Z,101443.05
2022-10-17T21:08:14.597Z,101445.86
2022-10-17T21:11:10.419Z,101448.23
2022-10-17T21:13:59.663Z,101447.38
2022-10-17T21:16:41.970Z,101446.95
2022-10-17T21:19:34.665Z,101450.29
2022-10-17T21:23:00.577Z,101450.91
2022-10-17T21:25:42.224Z,101447.38
2022-10-17T21:28:23.908Z,101448.98
2022-10-17T21:31:18.032Z,101448.48
2022-10-17T21:34:05.458Z,101450.11
2022-10-17T21:36:48.399Z,101449.82
2022-10-17T21:39:33.448Z,101447.76
2022-10-17T21:42:15.141Z,101443.39
2022-10-17T21:44:56.829Z,101444.30
2022-10-17T21:47:38.645Z,101452.34
2022-10-17T21:50:23.488Z,101454.55
2022-10-17T21:53:05.281Z,101458.27
2022-10-17T21:55:46.915Z,101461.23
2022-10-17T21:58:29.107Z,101458.02
2022-10-17T22:01:16.698Z,101460.95
2022-10-17T22:04:01.075Z,101461.52
2022-10-17T22:06:44.362Z,101461.10
2022-10-17T22:09:27.067Z,101454.27
2022-10-17T22:12:08.894Z,101454.34
2022-10-17T22:14:50.586Z,101448.30
2022-10-17T22:17:32.426Z,101452.42
2022-10-17T22:20:14.480Z,101450.52
2022-10-17T22:22:56.170Z,101448.14
2022-10-17T22:25:37.860Z,101451.98
2022-10-17T22:28:19.551Z,101443.42
2022-10-17T22:31:01.552Z,101439.68
2022-10-17T22:33:43.415Z,101448.02
2022-10-17T22:36:25.237Z,101445.72
2022-10-17T22:39:07.031Z,101446.19
2022-10-17T22:41:48.825Z,101450.63
2022-10-17T22:44:30.516Z,101444.27
2022-10-17T22:47:12.206Z,101450.07
2022-10-17T22:49:53.839Z,101448.15
2022-10-17T22:52:35.596Z,101445.45
2022-10-17T22:55:17.483Z,101452.30
2022-10-17T22:57:59.127Z,101444.39
2022-10-17T23:00:40.768Z,101445.73
2022-10-17T23:03:23.808Z,101452.04
2022-10-17T23:06:05.682Z,101453.25
2022-10-17T23:08:48.606Z,101452.00
2022-10-17T23:11:30.292Z,101452.52
2022-10-17T23:14:12.016Z,101451.37
2022-10-17T23:16:53.673Z,101446.73
2022-10-17T23:19:35.671Z,101446.80
2022-10-17T23:22:17.465Z,101449.36
2022-10-17T23:24:59.155Z,101448.44
2022-10-17T23:27:40.846Z,101443.80
2022-10-17T23:30:22.639Z,101440.60
2022-10-17T23:33:04.542Z,101435.38
2022-10-17T23:35:46.226Z,101436.55
2022-10-17T23:38:27.917Z,101442.28
2022-10-17T23:41:09.916Z,101440.52
2022-10-17T23:43:51.708Z,101443.74
2022-10-17T23:46:33.401Z,101439.04
2022-10-17T23:49:15.194Z,101438.85
2022-10-17T23:51:56.883Z,101442.62
2022-10-17T23:54:38.618Z,101442.52
2022-10-17T23:57:20.470Z,101436.85
